Billings, MT

3:30 AM MST on January 24, 2017 (GMT -0700)
Downtown Billings | | Change Station

Elev 3127 ft 45.78 °N, 108.50 °W | Updated 4 minutes ago

Light Snow
Light Snow Mist
24.6 °F
Feels Like 16 °F
N
7.4
Wind Variable Wind from NNE
Gusts 11.2 mph

Today
High -- | Low -- °F
--% Chance of Precip.
Yesterday
High -- | Low -- °F
Precip. -- in
Pressure 29.92 in
Visibility 6.0 miles
Clouds Overcast 200 ft
Windchill 16 °F
Dew Point 23.6 °F
Humidity 95%
Rainfall Not available.
Snow Depth Not available.
7:43 AM 5:08 PM
Waning Crescent, 12% visible
METAR KBIL 240953Z 05008KT 6SM -SN BR OVC002 M05/M06 A2980 RMK AO2 SLP131 P0000 T10501056
Pressure 29.92 in
Visibility 6.0 miles
Clouds Overcast 200 ft
Windchill 16 °F
Dew Point 23.6 °F
Humidity 95%
Rainfall Not available.
Snow Depth Not available.
7:43 AM 5:08 PM
Waning Crescent, 12% visible
METAR KBIL 240953Z 05008KT 6SM -SN BR OVC002 M05/M06 A2980 RMK AO2 SLP131 P0000 T10501056

Get Your Daily Forecast Email!

Thanks for signing up!

Be on the lookout for a verification email in your inbox.

You'll start receiving the daily forecast at 8 AM.

×

10-Day Weather Forecast

Almanac

Astronomy

Jan. 24, 2017 Rise Set
Actual Time
Civil Twilight
Nautical Twilight
Astronomical Twilight
Moon
Length of Visible Light
Length of Day
Tomorrow will be .
, % of the Moon is Illuminated

Today's Extremes

State Highs State Lows

Community

WunderPhotos

Upload Photos

1,962,540 photos uploaded!

WunderBlog® & News

Nearby

Air Quality

  Air Quality AQ Index Pollutant
Not available.

Snow Depth

Station Depth Elevation

Earthquake Activity

City Distance Mag. Time & Date
Minimum magnitude displayed is 2.5.

Coastal Water Temperatures

Place Temperature

Stations

Nearby Weather Stations

Station Location Temp. Windchill Dew Point Humidity Wind Precip. Elev Updated Type
                   

Watches & Warnings

There are currently no watches in effect.